sensor_id;sensor_type;location;lat;lon;timestamp;P1;durP1;ratioP1;P2;durP2;ratioP2
51491;SDS011;37569;50.548;8.778;2023-07-29T00:00:26;19.3;;;16.9;;
51491;SDS011;37569;50.548;8.778;2023-07-29T00:05:27;20.8;;;17.9;;
51491;SDS011;37569;50.548;8.778;2023-07-29T00:10:28;25.5;;;18.8;;
51491;SDS011;37569;50.548;8.778;2023-07-29T00:15:29;25.4;;;21.3;;
51491;SDS011;37569;50.548;8.778;2023-07-29T00:20:30;25.5;;;21;;
51491;SDS011;37569;50.548;8.778;2023-07-29T00:25:31;27.8;;;22.3;;
51491;SDS011;37569;50.548;8.778;2023-07-29T00:30:31;29.9;;;21.6;;
51491;SDS011;37569;50.548;8.778;2023-07-29T00:35:32;29.6;;;21.4;;
51491;SDS011;37569;50.548;8.778;2023-07-29T00:40:34;26.3;;;21.1;;
51491;SDS011;37569;50.548;8.778;2023-07-29T00:45:34;25.5;;;20.9;;
51491;SDS011;37569;50.548;8.778;2023-07-29T00:50:35;22.6;;;20.2;;
51491;SDS011;37569;50.548;8.778;2023-07-29T00:55:36;24.2;;;19.9;;
51491;SDS011;37569;50.548;8.778;2023-07-29T01:00:36;24.8;;;20;;
51491;SDS011;37569;50.548;8.778;2023-07-29T01:05:40;21.1;;;18.9;;
51491;SDS011;37569;50.548;8.778;2023-07-29T01:10:39;21.6;;;18;;
51491;SDS011;37569;50.548;8.778;2023-07-29T01:15:40;20.1;;;17.7;;
51491;SDS011;37569;50.548;8.778;2023-07-29T01:20:40;19.4;;;17.3;;
51491;SDS011;37569;50.548;8.778;2023-07-29T01:25:40;19.7;;;16.5;;
51491;SDS011;37569;50.548;8.778;2023-07-29T01:30:42;19.3;;;17.3;;
51491;SDS011;37569;50.548;8.778;2023-07-29T01:35:43;20.2;;;17.4;;
51491;SDS011;37569;50.548;8.778;2023-07-29T01:40:43;21.2;;;17.3;;
51491;SDS011;37569;50.548;8.778;2023-07-29T01:45:44;20.2;;;18;;
51491;SDS011;37569;50.548;8.778;2023-07-29T01:50:45;22.4;;;18.6;;
51491;SDS011;37569;50.548;8.778;2023-07-29T01:55:45;27.7;;;20.1;;
51491;SDS011;37569;50.548;8.778;2023-07-29T02:00:46;27.3;;;21.8;;
51491;SDS011;37569;50.548;8.778;2023-07-29T02:05:47;28.7;;;22.6;;
51491;SDS011;37569;50.548;8.778;2023-07-29T02:10:48;28;;;22.8;;
51491;SDS011;37569;50.548;8.778;2023-07-29T02:15:49;30.4;;;23;;
51491;SDS011;37569;50.548;8.778;2023-07-29T02:20:50;33;;;24.5;;
51491;SDS011;37569;50.548;8.778;2023-07-29T02:25:50;33.2;;;24.4;;
51491;SDS011;37569;50.548;8.778;2023-07-29T02:31:08;31.7;;;24.5;;
51491;SDS011;37569;50.548;8.778;2023-07-29T02:35:52;31.9;;;24.3;;
51491;SDS011;37569;50.548;8.778;2023-07-29T02:40:53;30.6;;;24.3;;
51491;SDS011;37569;50.548;8.778;2023-07-29T02:45:54;30.9;;;24.1;;
51491;SDS011;37569;50.548;8.778;2023-07-29T02:50:54;28.1;;;22.6;;
51491;SDS011;37569;50.548;8.778;2023-07-29T02:55:55;25.3;;;20.9;;
51491;SDS011;37569;50.548;8.778;2023-07-29T03:01:00;28.5;;;21.6;;
51491;SDS011;37569;50.548;8.778;2023-07-29T03:05:58;31.9;;;22.6;;
51491;SDS011;37569;50.548;8.778;2023-07-29T03:10:58;32.7;;;23.8;;
51491;SDS011;37569;50.548;8.778;2023-07-29T03:16:04;32.8;;;23.8;;
51491;SDS011;37569;50.548;8.778;2023-07-29T03:20:59;33.9;;;23.9;;
51491;SDS011;37569;50.548;8.778;2023-07-29T03:26:00;38;;;24.3;;
51491;SDS011;37569;50.548;8.778;2023-07-29T03:31:01;37.2;;;25.2;;
51491;SDS011;37569;50.548;8.778;2023-07-29T03:36:02;42.1;;;27.4;;
51491;SDS011;37569;50.548;8.778;2023-07-29T03:41:02;41.8;;;27.8;;
51491;SDS011;37569;50.548;8.778;2023-07-29T03:46:03;42;;;28.4;;
51491;SDS011;37569;50.548;8.778;2023-07-29T03:51:04;42.5;;;29.9;;
51491;SDS011;37569;50.548;8.778;2023-07-29T03:56:05;43.2;;;29.4;;
51491;SDS011;37569;50.548;8.778;2023-07-29T04:01:06;41.8;;;28.9;;
51491;SDS011;37569;50.548;8.778;2023-07-29T04:06:07;40.1;;;28.8;;
51491;SDS011;37569;50.548;8.778;2023-07-29T04:11:07;39.6;;;28.8;;
51491;SDS011;37569;50.548;8.778;2023-07-29T04:16:08;33.6;;;25.7;;
51491;SDS011;37569;50.548;8.778;2023-07-29T04:21:09;31.9;;;25.3;;
51491;SDS011;37569;50.548;8.778;2023-07-29T04:26:10;32.1;;;24.8;;
51491;SDS011;37569;50.548;8.778;2023-07-29T04:31:11;29.5;;;23.2;;
51491;SDS011;37569;50.548;8.778;2023-07-29T04:36:12;28;;;22.3;;
51491;SDS011;37569;50.548;8.778;2023-07-29T04:41:12;25.2;;;19.9;;
51491;SDS011;37569;50.548;8.778;2023-07-29T04:46:13;21.3;;;18.9;;
51491;SDS011;37569;50.548;8.778;2023-07-29T04:51:14;21.9;;;18.9;;
51491;SDS011;37569;50.548;8.778;2023-07-29T04:56:15;20.1;;;17.6;;
51491;SDS011;37569;50.548;8.778;2023-07-29T05:01:16;20.1;;;16.9;;
51491;SDS011;37569;50.548;8.778;2023-07-29T05:06:17;17.8;;;15.9;;
51491;SDS011;37569;50.548;8.778;2023-07-29T05:11:17;17.2;;;15.4;;
51491;SDS011;37569;50.548;8.778;2023-07-29T05:16:18;16.1;;;14.4;;
51491;SDS011;37569;50.548;8.778;2023-07-29T05:21:19;15.4;;;13.7;;
51491;SDS011;37569;50.548;8.778;2023-07-29T05:26:20;15.8;;;13.3;;
51491;SDS011;37569;50.548;8.778;2023-07-29T05:31:21;14;;;12.6;;
51491;SDS011;37569;50.548;8.778;2023-07-29T05:36:22;12.6;;;11.4;;
51491;SDS011;37569;50.548;8.778;2023-07-29T05:41:22;12.2;;;11;;
51491;SDS011;37569;50.548;8.778;2023-07-29T05:46:23;11.9;;;10.8;;
51491;SDS011;37569;50.548;8.778;2023-07-29T05:51:24;12.4;;;10.9;;
51491;SDS011;37569;50.548;8.778;2023-07-29T05:56:25;11.8;;;10.6;;
51491;SDS011;37569;50.548;8.778;2023-07-29T06:01:26;12;;;10.9;;
51491;SDS011;37569;50.548;8.778;2023-07-29T06:06:27;11.9;;;10.8;;
51491;SDS011;37569;50.548;8.778;2023-07-29T06:11:28;11.7;;;10.6;;
51491;SDS011;37569;50.548;8.778;2023-07-29T06:16:28;11.7;;;10.5;;
51491;SDS011;37569;50.548;8.778;2023-07-29T06:21:29;11.5;;;10.4;;
51491;SDS011;37569;50.548;8.778;2023-07-29T06:26:30;12.7;;;11.5;;
51491;SDS011;37569;50.548;8.778;2023-07-29T06:31:31;13;;;11.7;;
51491;SDS011;37569;50.548;8.778;2023-07-29T06:36:32;13.8;;;12.3;;
51491;SDS011;37569;50.548;8.778;2023-07-29T06:41:33;14.5;;;12.1;;
51491;SDS011;37569;50.548;8.778;2023-07-29T06:46:34;13.5;;;11.9;;
51491;SDS011;37569;50.548;8.778;2023-07-29T06:51:35;13.1;;;11.7;;
51491;SDS011;37569;50.548;8.778;2023-07-29T06:56:36;12;;;10.9;;
51491;SDS011;37569;50.548;8.778;2023-07-29T07:01:37;11.7;;;10.6;;
51491;SDS011;37569;50.548;8.778;2023-07-29T07:06:37;13.8;;;10.8;;
51491;SDS011;37569;50.548;8.778;2023-07-29T07:11:38;11.5;;;10.3;;
51491;SDS011;37569;50.548;8.778;2023-07-29T07:16:39;13.4;;;10.6;;
51491;SDS011;37569;50.548;8.778;2023-07-29T07:21:40;11.4;;;10.4;;
51491;SDS011;37569;50.548;8.778;2023-07-29T07:26:41;12.7;;;11.3;;
51491;SDS011;37569;50.548;8.778;2023-07-29T07:31:47;13.5;;;12.1;;
51491;SDS011;37569;50.548;8.778;2023-07-29T07:36:42;14;;;12.6;;
51491;SDS011;37569;50.548;8.778;2023-07-29T07:41:43;13.5;;;12.1;;
51491;SDS011;37569;50.548;8.778;2023-07-29T07:46:44;13.7;;;12.2;;
51491;SDS011;37569;50.548;8.778;2023-07-29T07:51:45;14.3;;;12.9;;
51491;SDS011;37569;50.548;8.778;2023-07-29T07:56:46;15.7;;;14.3;;
51491;SDS011;37569;50.548;8.778;2023-07-29T08:01:47;14.4;;;13;;
51491;SDS011;37569;50.548;8.778;2023-07-29T08:06:48;14.2;;;13;;
51491;SDS011;37569;50.548;8.778;2023-07-29T08:11:49;14;;;12.6;;
51491;SDS011;37569;50.548;8.778;2023-07-29T08:16:49;13.9;;;12.6;;
51491;SDS011;37569;50.548;8.778;2023-07-29T08:21:50;14.6;;;13.2;;
51491;SDS011;37569;50.548;8.778;2023-07-29T08:26:51;14;;;12.6;;
51491;SDS011;37569;50.548;8.778;2023-07-29T08:31:52;13;;;11.7;;
51491;SDS011;37569;50.548;8.778;2023-07-29T08:36:53;11.2;;;10.1;;
51491;SDS011;37569;50.548;8.778;2023-07-29T08:41:56;9.5;;;8.6;;
51491;SDS011;37569;50.548;8.778;2023-07-29T08:46:55;8.4;;;7.6;;
51491;SDS011;37569;50.548;8.778;2023-07-29T08:51:56;6.2;;;5.6;;
51491;SDS011;37569;50.548;8.778;2023-07-29T08:56:57;5;;;4.5;;
51491;SDS011;37569;50.548;8.778;2023-07-29T09:01:58;6.8;;;4.3;;
51491;SDS011;37569;50.548;8.778;2023-07-29T09:06:59;5.2;;;4.5;;
51491;SDS011;37569;50.548;8.778;2023-07-29T09:12:00;3.9;;;3.5;;
51491;SDS011;37569;50.548;8.778;2023-07-29T09:17:01;4.3;;;3.1;;
51491;SDS011;37569;50.548;8.778;2023-07-29T09:22:02;3.8;;;2.4;;
51491;SDS011;37569;50.548;8.778;2023-07-29T09:27:03;3.5;;;2.2;;
51491;SDS011;37569;50.548;8.778;2023-07-29T09:32:20;2.6;;;2.1;;
51491;SDS011;37569;50.548;8.778;2023-07-29T09:37:05;2.4;;;2.2;;
51491;SDS011;37569;50.548;8.778;2023-07-29T09:42:06;2.8;;;2;;
51491;SDS011;37569;50.548;8.778;2023-07-29T09:47:07;2;;;1.8;;
51491;SDS011;37569;50.548;8.778;2023-07-29T09:52:09;1.9;;;1.7;;
51491;SDS011;37569;50.548;8.778;2023-07-29T09:57:10;1.6;;;1.5;;
51491;SDS011;37569;50.548;8.778;2023-07-29T10:02:13;2.3;;;1.7;;
51491;SDS011;37569;50.548;8.778;2023-07-29T10:07:12;3.2;;;1.9;;
51491;SDS011;37569;50.548;8.778;2023-07-29T10:12:13;3.4;;;1.6;;
51491;SDS011;37569;50.548;8.778;2023-07-29T10:17:14;3;;;1.5;;
51491;SDS011;37569;50.548;8.778;2023-07-29T10:22:15;2.6;;;1.8;;
51491;SDS011;37569;50.548;8.778;2023-07-29T10:27:17;2.9;;;1.9;;
51491;SDS011;37569;50.548;8.778;2023-07-29T10:32:18;2.6;;;1.7;;
51491;SDS011;37569;50.548;8.778;2023-07-29T10:37:19;1.8;;;1.6;;
51491;SDS011;37569;50.548;8.778;2023-07-29T10:42:20;3.5;;;1.7;;
51491;SDS011;37569;50.548;8.778;2023-07-29T10:47:22;2.7;;;1.7;;
51491;SDS011;37569;50.548;8.778;2023-07-29T10:52:30;1.7;;;1.6;;
51491;SDS011;37569;50.548;8.778;2023-07-29T10:57:30;2.1;;;1.7;;
51491;SDS011;37569;50.548;8.778;2023-07-29T11:02:28;1.9;;;1.7;;
51491;SDS011;37569;50.548;8.778;2023-07-29T11:07:26;3.7;;;1.9;;
51491;SDS011;37569;50.548;8.778;2023-07-29T11:12:35;2.6;;;1.2;;
51491;SDS011;37569;50.548;8.778;2023-07-29T11:17:28;4.9;;;1.3;;
51491;SDS011;37569;50.548;8.778;2023-07-29T11:22:29;2.6;;;1;;
51491;SDS011;37569;50.548;8.778;2023-07-29T11:27:30;4;;;1.1;;
51491;SDS011;37569;50.548;8.778;2023-07-29T11:32:31;9.9;;;2.1;;
51491;SDS011;37569;50.548;8.778;2023-07-29T11:37:32;3.8;;;1.5;;
51491;SDS011;37569;50.548;8.778;2023-07-29T11:42:33;3.5;;;1.2;;
51491;SDS011;37569;50.548;8.778;2023-07-29T11:47:34;4.8;;;1.9;;
51491;SDS011;37569;50.548;8.778;2023-07-29T11:52:35;2.2;;;1.8;;
51491;SDS011;37569;50.548;8.778;2023-07-29T11:57:36;2.5;;;1.9;;
51491;SDS011;37569;50.548;8.778;2023-07-29T12:02:37;2.2;;;1.8;;
51491;SDS011;37569;50.548;8.778;2023-07-29T12:07:38;1.7;;;1.6;;
51491;SDS011;37569;50.548;8.778;2023-07-29T12:12:40;2;;;1.8;;
51491;SDS011;37569;50.548;8.778;2023-07-29T12:17:40;2.3;;;1.7;;
51491;SDS011;37569;50.548;8.778;2023-07-29T12:22:40;2;;;1.8;;
51491;SDS011;37569;50.548;8.778;2023-07-29T12:27:42;2.8;;;1.9;;
51491;SDS011;37569;50.548;8.778;2023-07-29T12:32:43;2.2;;;2;;
51491;SDS011;37569;50.548;8.778;2023-07-29T12:37:43;3;;;2;;
51491;SDS011;37569;50.548;8.778;2023-07-29T12:42:44;2.5;;;1.8;;
51491;SDS011;37569;50.548;8.778;2023-07-29T12:47:46;2.4;;;2;;
51491;SDS011;37569;50.548;8.778;2023-07-29T12:52:47;2.5;;;2.2;;
51491;SDS011;37569;50.548;8.778;2023-07-29T12:57:48;2.6;;;1.9;;
51491;SDS011;37569;50.548;8.778;2023-07-29T13:02:49;4.2;;;2;;
51491;SDS011;37569;50.548;8.778;2023-07-29T13:07:50;2.9;;;2.1;;
51491;SDS011;37569;50.548;8.778;2023-07-29T13:12:51;2.7;;;2;;
51491;SDS011;37569;50.548;8.778;2023-07-29T13:17:52;3.2;;;2.1;;
51491;SDS011;37569;50.548;8.778;2023-07-29T13:22:53;2.8;;;2;;
51491;SDS011;37569;50.548;8.778;2023-07-29T13:27:54;2.4;;;2.2;;
51491;SDS011;37569;50.548;8.778;2023-07-29T13:32:56;2.4;;;2.2;;
51491;SDS011;37569;50.548;8.778;2023-07-29T13:37:57;2.6;;;1.9;;
51491;SDS011;37569;50.548;8.778;2023-07-29T13:42:58;2.5;;;1.9;;
51491;SDS011;37569;50.548;8.778;2023-07-29T13:47:59;3.3;;;2;;
51491;SDS011;37569;50.548;8.778;2023-07-29T13:53:00;2.1;;;1.9;;
51491;SDS011;37569;50.548;8.778;2023-07-29T13:58:01;3.2;;;2.3;;
51491;SDS011;37569;50.548;8.778;2023-07-29T14:03:02;2.7;;;2;;
51491;SDS011;37569;50.548;8.778;2023-07-29T14:08:04;2.7;;;2;;
51491;SDS011;37569;50.548;8.778;2023-07-29T14:13:05;3.1;;;2.3;;
51491;SDS011;37569;50.548;8.778;2023-07-29T14:18:06;4.4;;;2.5;;
51491;SDS011;37569;50.548;8.778;2023-07-29T14:23:07;4.2;;;2.3;;
51491;SDS011;37569;50.548;8.778;2023-07-29T14:28:08;10.5;;;3.5;;
51491;SDS011;37569;50.548;8.778;2023-07-29T14:33:09;3.5;;;3.1;;
51491;SDS011;37569;50.548;8.778;2023-07-29T14:38:10;4.3;;;2.9;;
51491;SDS011;37569;50.548;8.778;2023-07-29T14:43:11;3.3;;;2.6;;
51491;SDS011;37569;50.548;8.778;2023-07-29T14:48:12;3;;;2.7;;
51491;SDS011;37569;50.548;8.778;2023-07-29T14:53:13;3.2;;;2.5;;
51491;SDS011;37569;50.548;8.778;2023-07-29T14:58:14;3.1;;;2.1;;
51491;SDS011;37569;50.548;8.778;2023-07-29T15:03:15;3.9;;;2;;
51491;SDS011;37569;50.548;8.778;2023-07-29T15:08:17;2.4;;;2.2;;
51491;SDS011;37569;50.548;8.778;2023-07-29T15:13:17;2.9;;;2.6;;
51491;SDS011;37569;50.548;8.778;2023-07-29T15:18:19;3.3;;;2.4;;
51491;SDS011;37569;50.548;8.778;2023-07-29T15:23:20;2.9;;;2.3;;
51491;SDS011;37569;50.548;8.778;2023-07-29T15:28:21;3.6;;;2.6;;
51491;SDS011;37569;50.548;8.778;2023-07-29T15:33:22;3.6;;;2.7;;
51491;SDS011;37569;50.548;8.778;2023-07-29T15:38:23;5.5;;;2.7;;
51491;SDS011;37569;50.548;8.778;2023-07-29T15:43:24;5.2;;;2.4;;
51491;SDS011;37569;50.548;8.778;2023-07-29T15:48:25;6.2;;;2.4;;
51491;SDS011;37569;50.548;8.778;2023-07-29T15:53:26;3.3;;;2.5;;
51491;SDS011;37569;50.548;8.778;2023-07-29T15:58:27;2.4;;;2.2;;
51491;SDS011;37569;50.548;8.778;2023-07-29T16:03:28;3.2;;;2.9;;
51491;SDS011;37569;50.548;8.778;2023-07-29T16:08:29;3;;;2.3;;
51491;SDS011;37569;50.548;8.778;2023-07-29T16:13:30;4.9;;;2.9;;
51491;SDS011;37569;50.548;8.778;2023-07-29T16:18:31;3.9;;;3;;
51491;SDS011;37569;50.548;8.778;2023-07-29T16:23:33;2.9;;;2.6;;
51491;SDS011;37569;50.548;8.778;2023-07-29T16:28:33;2.9;;;2.5;;
51491;SDS011;37569;50.548;8.778;2023-07-29T16:33:34;3.2;;;2.7;;
51491;SDS011;37569;50.548;8.778;2023-07-29T16:38:35;2.9;;;2.4;;
51491;SDS011;37569;50.548;8.778;2023-07-29T16:43:36;3.1;;;2.8;;
51491;SDS011;37569;50.548;8.778;2023-07-29T16:48:37;2.4;;;2.2;;
51491;SDS011;37569;50.548;8.778;2023-07-29T16:53:38;3.7;;;2.5;;
51491;SDS011;37569;50.548;8.778;2023-07-29T16:58:40;3;;;2.4;;
51491;SDS011;37569;50.548;8.778;2023-07-29T17:03:41;2.5;;;2.3;;
51491;SDS011;37569;50.548;8.778;2023-07-29T17:08:42;4.2;;;2.5;;
51491;SDS011;37569;50.548;8.778;2023-07-29T17:13:43;3.6;;;2.5;;
51491;SDS011;37569;50.548;8.778;2023-07-29T17:18:44;2.8;;;2.6;;
51491;SDS011;37569;50.548;8.778;2023-07-29T17:23:45;4;;;2.8;;
51491;SDS011;37569;50.548;8.778;2023-07-29T17:28:46;3.9;;;2.9;;
51491;SDS011;37569;50.548;8.778;2023-07-29T17:33:47;3.9;;;2.6;;
51491;SDS011;37569;50.548;8.778;2023-07-29T17:38:48;4.4;;;3.2;;
51491;SDS011;37569;50.548;8.778;2023-07-29T17:43:49;4.8;;;3.2;;
51491;SDS011;37569;50.548;8.778;2023-07-29T17:48:50;3.2;;;2.9;;
51491;SDS011;37569;50.548;8.778;2023-07-29T17:53:51;3.3;;;2.8;;
51491;SDS011;37569;50.548;8.778;2023-07-29T17:58:52;3.5;;;2.8;;
51491;SDS011;37569;50.548;8.778;2023-07-29T18:03:53;3.6;;;2.6;;
51491;SDS011;37569;50.548;8.778;2023-07-29T18:08:54;4.3;;;2.9;;
51491;SDS011;37569;50.548;8.778;2023-07-29T18:13:55;4.3;;;2.8;;
51491;SDS011;37569;50.548;8.778;2023-07-29T18:18:56;2.8;;;2.6;;
51491;SDS011;37569;50.548;8.778;2023-07-29T18:23:57;4.2;;;2.6;;
51491;SDS011;37569;50.548;8.778;2023-07-29T18:28:58;4.7;;;2.7;;
51491;SDS011;37569;50.548;8.778;2023-07-29T18:33:59;3.5;;;2.7;;
51491;SDS011;37569;50.548;8.778;2023-07-29T18:39:00;3.6;;;2.7;;
51491;SDS011;37569;50.548;8.778;2023-07-29T18:44:01;5.1;;;3.1;;
51491;SDS011;37569;50.548;8.778;2023-07-29T18:49:02;3.5;;;3.1;;
51491;SDS011;37569;50.548;8.778;2023-07-29T18:54:03;3.9;;;3.4;;
51491;SDS011;37569;50.548;8.778;2023-07-29T18:59:04;5.4;;;3.3;;
51491;SDS011;37569;50.548;8.778;2023-07-29T19:04:05;5.1;;;3.4;;
51491;SDS011;37569;50.548;8.778;2023-07-29T19:09:06;6.6;;;3.4;;
51491;SDS011;37569;50.548;8.778;2023-07-29T19:14:07;3.9;;;3.2;;
51491;SDS011;37569;50.548;8.778;2023-07-29T19:19:08;4.1;;;3.4;;
51491;SDS011;37569;50.548;8.778;2023-07-29T19:24:09;4.2;;;3.2;;
51491;SDS011;37569;50.548;8.778;2023-07-29T19:29:10;4;;;3.6;;
51491;SDS011;37569;50.548;8.778;2023-07-29T19:34:11;4;;;3.6;;
51491;SDS011;37569;50.548;8.778;2023-07-29T19:39:12;5;;;3.4;;
51491;SDS011;37569;50.548;8.778;2023-07-29T19:44:13;6.2;;;3.6;;
51491;SDS011;37569;50.548;8.778;2023-07-29T19:49:14;5.1;;;3.5;;
51491;SDS011;37569;50.548;8.778;2023-07-29T19:54:15;5.4;;;4.1;;
51491;SDS011;37569;50.548;8.778;2023-07-29T19:59:16;6.3;;;3.8;;
51491;SDS011;37569;50.548;8.778;2023-07-29T20:04:17;4.7;;;3.7;;
51491;SDS011;37569;50.548;8.778;2023-07-29T20:09:17;5;;;3.9;;
51491;SDS011;37569;50.548;8.778;2023-07-29T20:14:18;5.9;;;3.9;;
51491;SDS011;37569;50.548;8.778;2023-07-29T20:19:19;5.2;;;4.1;;
51491;SDS011;37569;50.548;8.778;2023-07-29T20:24:20;4;;;3.6;;
51491;SDS011;37569;50.548;8.778;2023-07-29T20:29:21;6.7;;;4.2;;
51491;SDS011;37569;50.548;8.778;2023-07-29T20:34:22;6.7;;;4.3;;
51491;SDS011;37569;50.548;8.778;2023-07-29T20:39:23;6.9;;;4;;
51491;SDS011;37569;50.548;8.778;2023-07-29T20:44:26;6.8;;;4.4;;
51491;SDS011;37569;50.548;8.778;2023-07-29T20:49:25;6.1;;;4.4;;
51491;SDS011;37569;50.548;8.778;2023-07-29T20:54:25;5.1;;;4.1;;
51491;SDS011;37569;50.548;8.778;2023-07-29T20:59:26;7.2;;;4.3;;
51491;SDS011;37569;50.548;8.778;2023-07-29T21:04:27;6.9;;;4.7;;
51491;SDS011;37569;50.548;8.778;2023-07-29T21:09:28;5.4;;;4.2;;
51491;SDS011;37569;50.548;8.778;2023-07-29T21:14:29;4.8;;;4.3;;
51491;SDS011;37569;50.548;8.778;2023-07-29T21:19:30;10.7;;;4.7;;
51491;SDS011;37569;50.548;8.778;2023-07-29T21:24:31;5.8;;;4.4;;
51491;SDS011;37569;50.548;8.778;2023-07-29T21:29:31;5.5;;;4.4;;
51491;SDS011;37569;50.548;8.778;2023-07-29T21:34:32;8.2;;;4.6;;
51491;SDS011;37569;50.548;8.778;2023-07-29T21:39:34;4.7;;;4.1;;
51491;SDS011;37569;50.548;8.778;2023-07-29T21:44:34;4.9;;;4.4;;
51491;SDS011;37569;50.548;8.778;2023-07-29T21:49:35;4.9;;;4.4;;
51491;SDS011;37569;50.548;8.778;2023-07-29T21:54:36;8;;;4.6;;
51491;SDS011;37569;50.548;8.778;2023-07-29T21:59:37;6.3;;;4.4;;
51491;SDS011;37569;50.548;8.778;2023-07-29T22:04:38;6.6;;;4.4;;
51491;SDS011;37569;50.548;8.778;2023-07-29T22:09:38;5.9;;;4.4;;
51491;SDS011;37569;50.548;8.778;2023-07-29T22:14:39;5;;;4.3;;
51491;SDS011;37569;50.548;8.778;2023-07-29T22:19:40;5.9;;;4.2;;
51491;SDS011;37569;50.548;8.778;2023-07-29T22:24:41;5.4;;;4.5;;
51491;SDS011;37569;50.548;8.778;2023-07-29T22:29:42;8.3;;;4.5;;
51491;SDS011;37569;50.548;8.778;2023-07-29T22:34:43;4.7;;;4;;
51491;SDS011;37569;50.548;8.778;2023-07-29T22:39:44;6.9;;;3.9;;
51491;SDS011;37569;50.548;8.778;2023-07-29T22:44:44;6.1;;;3.7;;
51491;SDS011;37569;50.548;8.778;2023-07-29T22:49:45;7.4;;;4.2;;
51491;SDS011;37569;50.548;8.778;2023-07-29T22:54:46;6.1;;;3.8;;
51491;SDS011;37569;50.548;8.778;2023-07-29T22:59:47;5.7;;;3.8;;
51491;SDS011;37569;50.548;8.778;2023-07-29T23:04:48;5.8;;;3.9;;
51491;SDS011;37569;50.548;8.778;2023-07-29T23:09:49;4.3;;;3.5;;
51491;SDS011;37569;50.548;8.778;2023-07-29T23:14:49;5.8;;;3.8;;
51491;SDS011;37569;50.548;8.778;2023-07-29T23:19:50;5.7;;;3.9;;
51491;SDS011;37569;50.548;8.778;2023-07-29T23:24:51;4.2;;;3.8;;
51491;SDS011;37569;50.548;8.778;2023-07-29T23:29:52;5.1;;;3.7;;
51491;SDS011;37569;50.548;8.778;2023-07-29T23:34:53;4.2;;;3.7;;
51491;SDS011;37569;50.548;8.778;2023-07-29T23:39:54;7;;;3.7;;
51491;SDS011;37569;50.548;8.778;2023-07-29T23:44:54;5;;;3.7;;
51491;SDS011;37569;50.548;8.778;2023-07-29T23:49:55;3.9;;;3.5;;
51491;SDS011;37569;50.548;8.778;2023-07-29T23:54:56;5.9;;;3.4;;
51491;SDS011;37569;50.548;8.778;2023-07-29T23:59:57;5.7;;;3.4;;
